Time;durP1;ratioP1;P1;durP2;ratioP2;P2;SDS_P1;SDS_P2;PMS_P1;PMS_P2;Temp;Humidity;BMP_temperature;BMP_pressure;BME280_temperature;BME280_humidity;BME280_pressure;Samples;Min_cycle;Max_cycle;Signal;HPM_P1;HPM_P2
2023/06/01 00:01:24;;;;;;;5.75;2.92;;;10.90;99.90;;;;;;4985900;28;20061;-82
2023/06/01 00:03:50;;;;;;;10.93;3.75;;;11.30;99.90;;;;;;4983355;28;20081;-82
2023/06/01 00:06:16;;;;;;;9.90;3.15;;;11.10;99.90;;;;;;4995800;28;20497;-82
2023/06/01 00:08:42;;;;;;;6.53;2.70;;;11.10;99.90;;;;;;5017312;28;20073;-85
2023/06/01 00:11:07;;;;;;;9.68;3.30;;;11.10;99.90;;;;;;4955235;28;20045;-83
2023/06/01 00:13:33;;;;;;;8.90;3.08;;;11.10;99.90;;;;;;4968094;28;20181;-83
2023/06/01 00:15:59;;;;;;;4.20;2.72;;;11.00;99.90;;;;;;4942644;28;20046;-83
2023/06/01 00:18:27;;;;;;;7.90;3.15;;;11.00;99.90;;;;;;4968889;28;20042;-84
2023/06/01 00:20:53;;;;;;;7.50;3.10;;;11.10;99.90;;;;;;4985173;28;20042;-82
2023/06/01 00:23:19;;;;;;;7.82;2.97;;;11.00;99.90;;;;;;4982668;28;20053;-84
2023/06/01 00:25:46;;;;;;;6.78;3.10;;;11.00;99.90;;;;;;4968049;28;20572;-82
2023/06/01 00:28:11;;;;;;;7.80;2.80;;;11.00;99.90;;;;;;4982707;28;20038;-86
2023/06/01 00:30:37;;;;;;;8.82;3.00;;;11.00;99.90;;;;;;5015732;28;20046;-85
2023/06/01 00:33:03;;;;;;;7.22;2.85;;;11.00;99.90;;;;;;4965125;28;20508;-84
2023/06/01 00:35:28;;;;;;;9.48;3.72;;;11.00;99.90;;;;;;4968901;28;20046;-85
2023/06/01 00:37:55;;;;;;;4.97;2.78;;;11.00;99.90;;;;;;4968573;28;20057;-84
2023/06/01 00:40:20;;;;;;;7.70;3.35;;;11.00;99.90;;;;;;4964414;28;20053;-82
2023/06/01 00:42:46;;;;;;;6.60;3.40;;;11.00;99.90;;;;;;4966580;28;20043;-84
2023/06/01 00:45:12;;;;;;;6.07;3.10;;;10.90;99.90;;;;;;4952237;28;20082;-83
2023/06/01 00:47:42;;;;;;;7.88;3.10;;;10.90;99.90;;;;;;4965385;28;20050;-83
2023/06/01 00:50:10;;;;;;;6.85;3.28;;;10.90;99.90;;;;;;4952031;28;20137;-81
2023/06/01 00:52:38;;;;;;;7.13;3.10;;;10.90;99.90;;;;;;4951055;28;20105;-81
2023/06/01 00:55:05;;;;;;;8.93;2.80;;;10.90;99.90;;;;;;4964272;28;20202;-85
2023/06/01 00:57:30;;;;;;;5.55;3.38;;;10.90;99.90;;;;;;4997990;28;20491;-81
2023/06/01 00:59:57;;;;;;;5.75;3.53;;;10.90;99.90;;;;;;4982103;28;20059;-81
2023/06/01 01:02:23;;;;;;;7.68;3.50;;;10.90;99.90;;;;;;4967465;28;20092;-82
2023/06/01 01:04:52;;;;;;;8.50;3.28;;;10.90;99.90;;;;;;4984849;28;20050;-82
2023/06/01 01:07:41;;;;;;;7.65;3.63;;;10.90;99.90;;;;;;5012487;28;20370;-81
2023/06/01 01:10:15;;;;;;;6.13;2.75;;;11.00;99.90;;;;;;4968210;28;20090;-82
2023/06/01 01:12:58;;;;;;;7.35;3.40;;;10.90;99.90;;;;;;5000410;28;20133;-80
2023/06/01 01:15:32;;;;;;;6.25;3.33;;;10.90;99.90;;;;;;4981307;28;20102;-80
2023/06/01 01:18:03;;;;;;;8.30;3.53;;;11.00;99.90;;;;;;4966324;28;20043;-82
2023/06/01 01:20:38;;;;;;;6.28;3.45;;;10.90;99.90;;;;;;4970927;28;20045;-84
2023/06/01 01:23:33;;;;;;;6.00;3.20;;;10.90;99.90;;;;;;4969455;28;20408;-83
2023/06/01 01:25:58;;;;;;;6.55;3.83;;;11.00;99.90;;;;;;4972458;28;20464;-80
2023/06/01 01:28:41;;;;;;;7.28;3.58;;;10.90;99.90;;;;;;5004212;28;20062;-80
2023/06/01 01:31:10;;;;;;;6.40;3.17;;;11.00;99.90;;;;;;4969309;28;20436;-80
2023/06/01 01:33:37;;;;;;;4.03;2.88;;;10.90;99.90;;;;;;5001902;28;20046;-79
2023/06/01 01:36:05;;;;;;;6.22;3.50;;;10.90;99.90;;;;;;4971250;28;20051;-80
2023/06/01 01:38:35;;;;;;;7.78;3.33;;;10.90;99.90;;;;;;4986161;28;20180;-81
2023/06/01 01:41:00;;;;;;;8.88;3.25;;;10.90;99.90;;;;;;4965604;28;20057;-81
2023/06/01 01:43:26;;;;;;;8.52;3.50;;;10.90;99.90;;;;;;4955104;28;20141;-81
2023/06/01 01:46:06;;;;;;;7.22;3.28;;;10.90;99.90;;;;;;4972188;28;20058;-79
2023/06/01 01:48:39;;;;;;;8.02;3.55;;;10.90;99.90;;;;;;4965165;28;20144;-80
2023/06/01 01:51:15;;;;;;;7.68;3.50;;;10.90;99.90;;;;;;4967328;28;20481;-80
2023/06/01 01:53:42;;;;;;;6.40;3.50;;;10.90;99.90;;;;;;4969515;28;20503;-81
2023/06/01 01:56:09;;;;;;;5.57;3.13;;;10.90;99.90;;;;;;4961452;28;20057;-81
2023/06/01 01:58:35;;;;;;;7.55;3.22;;;10.90;99.90;;;;;;5019701;28;20062;-81
2023/06/01 02:01:02;;;;;;;4.88;2.90;;;10.90;99.90;;;;;;4971306;28;20144;-80
2023/06/01 02:03:28;;;;;;;8.80;3.10;;;10.90;99.90;;;;;;4953907;28;20054;-80
2023/06/01 02:05:54;;;;;;;5.97;3.40;;;10.90;99.90;;;;;;4969280;28;20048;-82
2023/06/01 02:08:20;;;;;;;7.10;2.75;;;10.90;99.90;;;;;;4969223;28;20428;-83
2023/06/01 02:10:45;;;;;;;6.90;3.40;;;10.90;99.90;;;;;;4968296;28;20046;-80
2023/06/01 02:13:11;;;;;;;5.90;3.17;;;10.90;99.90;;;;;;4980154;28;20104;-80
2023/06/01 02:15:37;;;;;;;9.13;3.50;;;10.90;99.90;;;;;;5035187;28;20493;-81
2023/06/01 02:18:03;;;;;;;6.85;3.45;;;10.90;99.90;;;;;;4985251;28;20047;-81
2023/06/01 02:20:29;;;;;;;9.63;4.43;;;10.90;99.90;;;;;;5003117;28;20100;-81
2023/06/01 02:22:55;;;;;;;8.85;3.22;;;10.90;99.90;;;;;;4971110;28;20050;-80
2023/06/01 02:25:21;;;;;;;5.32;2.80;;;10.90;99.90;;;;;;4985860;28;20508;-80
2023/06/01 02:27:46;;;;;;;6.07;2.90;;;10.90;99.90;;;;;;4971068;28;20129;-80
2023/06/01 02:30:12;;;;;;;6.82;2.08;;;10.90;99.90;;;;;;4986689;28;20140;-82
2023/06/01 02:32:38;;;;;;;7.55;2.70;;;10.90;99.90;;;;;;4986820;28;20146;-82
2023/06/01 02:35:06;;;;;;;4.38;2.03;;;10.90;99.90;;;;;;4983905;28;20078;-82
2023/06/01 02:37:32;;;;;;;3.78;2.38;;;10.90;99.90;;;;;;4970158;28;20046;-80
2023/06/01 02:40:02;;;;;;;5.75;2.08;;;10.90;99.90;;;;;;4981704;28;20108;-79
2023/06/01 02:42:33;;;;;;;3.92;1.95;;;10.80;99.90;;;;;;4978771;28;20053;-80
2023/06/01 02:44:59;;;;;;;5.43;2.42;;;10.90;99.90;;;;;;4973891;28;20053;-81
2023/06/01 02:47:25;;;;;;;6.10;2.17;;;10.90;99.90;;;;;;4973073;28;20038;-81
2023/06/01 02:49:50;;;;;;;5.63;2.15;;;10.90;99.90;;;;;;4985287;28;20046;-81
2023/06/01 02:52:16;;;;;;;4.45;2.30;;;10.90;99.90;;;;;;5019179;28;20054;-81
2023/06/01 02:54:42;;;;;;;3.38;2.05;;;10.90;99.90;;;;;;4984021;28;20052;-83
2023/06/01 02:57:08;;;;;;;6.78;2.25;;;10.90;99.90;;;;;;4968318;28;20564;-90
2023/06/01 02:59:33;;;;;;;5.85;2.50;;;10.90;99.90;;;;;;4983526;28;20042;-82
2023/06/01 03:01:59;;;;;;;6.32;2.53;;;10.90;99.90;;;;;;4987309;28;20046;-82
2023/06/01 03:04:28;;;;;;;5.88;2.85;;;10.90;99.90;;;;;;4970377;28;20057;-81
2023/06/01 03:06:54;;;;;;;6.13;2.78;;;10.90;99.90;;;;;;4967167;28;20520;-81
2023/06/01 03:09:20;;;;;;;7.55;2.60;;;10.90;99.90;;;;;;4983598;28;20422;-81
2023/06/01 03:11:45;;;;;;;5.57;2.58;;;10.90;99.90;;;;;;4986287;28;20544;-86
2023/06/01 03:14:11;;;;;;;6.00;2.90;;;10.90;99.90;;;;;;4982165;28;20043;-80
2023/06/01 03:16:37;;;;;;;6.03;2.88;;;10.90;99.90;;;;;;4970845;28;20054;-80
2023/06/01 03:19:03;;;;;;;6.50;2.72;;;10.90;99.90;;;;;;4968600;28;20046;-81
2023/06/01 03:21:28;;;;;;;9.43;3.00;;;10.90;99.90;;;;;;4986616;28;20069;-81
2023/06/01 03:23:55;;;;;;;5.38;3.13;;;10.90;99.90;;;;;;4960312;28;20046;-81
2023/06/01 03:26:20;;;;;;;7.13;3.05;;;10.90;99.90;;;;;;4990134;28;20110;-81
2023/06/01 03:28:47;;;;;;;6.55;2.78;;;10.90;99.90;;;;;;4983179;28;20149;-80
2023/06/01 03:31:18;;;;;;;8.85;3.10;;;11.00;99.90;;;;;;4969615;28;20065;-81
2023/06/01 03:33:44;;;;;;;10.27;3.28;;;11.00;99.90;;;;;;4983275;28;20042;-82
2023/06/01 03:36:10;;;;;;;9.25;3.13;;;10.90;99.90;;;;;;4975018;28;20045;-83
2023/06/01 03:38:36;;;;;;;7.28;2.55;;;10.90;99.90;;;;;;4956941;28;20047;-84
2023/06/01 03:41:01;;;;;;;7.38;2.80;;;10.90;99.90;;;;;;4956608;28;20057;-85
2023/06/01 03:43:27;;;;;;;5.97;2.92;;;10.90;99.90;;;;;;4985254;28;20042;-80
2023/06/01 03:45:53;;;;;;;7.82;3.05;;;10.90;99.90;;;;;;4967862;28;20235;-81
2023/06/01 03:48:19;;;;;;;6.93;3.05;;;10.90;99.90;;;;;;4978024;28;20137;-83
2023/06/01 03:50:45;;;;;;;6.97;3.17;;;10.90;99.90;;;;;;4983370;28;20206;-86
2023/06/01 03:53:11;;;;;;;4.45;2.38;;;10.90;99.90;;;;;;4998266;28;20054;-86
2023/06/01 03:55:37;;;;;;;4.90;2.45;;;10.90;99.90;;;;;;4965069;28;20602;-82
2023/06/01 03:58:04;;;;;;;7.95;2.60;;;10.90;99.90;;;;;;4982693;28;20059;-86
2023/06/01 04:00:30;;;;;;;7.28;3.15;;;10.80;99.90;;;;;;4983091;28;20054;-83
2023/06/01 04:02:58;;;;;;;5.85;2.58;;;10.80;99.90;;;;;;4974903;28;20108;-83
2023/06/01 04:05:27;;;;;;;4.55;2.40;;;10.80;99.90;;;;;;4964260;28;20045;-88
2023/06/01 04:07:54;;;;;;;5.78;2.30;;;10.80;99.90;;;;;;4971068;28;20543;-88
2023/06/01 04:10:21;;;;;;;9.43;2.92;;;10.80;99.90;;;;;;4968743;28;20046;-84
2023/06/01 04:12:51;;;;;;;6.28;2.72;;;10.80;99.90;;;;;;4960776;28;20050;-87
2023/06/01 04:15:19;;;;;;;4.68;2.83;;;10.80;99.90;;;;;;4975487;28;20074;-83
2023/06/01 04:17:45;;;;;;;6.50;2.95;;;10.80;99.90;;;;;;4984835;28;20038;-84
2023/06/01 04:23:22;;;;;;;7.80;3.50;;;10.80;99.90;;;;;;4959507;28;20557;-88
2023/06/01 04:25:51;;;;;;;6.80;2.92;;;10.90;99.90;;;;;;4978443;28;20054;-82
2023/06/01 04:28:17;;;;;;;6.30;3.35;;;10.90;99.90;;;;;;4984377;28;20046;-83
2023/06/01 04:30:47;;;;;;;11.18;3.65;;;10.90;99.90;;;;;;4984728;28;20061;-80
2023/06/01 04:33:13;;;;;;;6.68;2.72;;;10.90;99.90;;;;;;4954374;28;20321;-85
2023/06/01 04:35:39;;;;;;;7.78;3.42;;;10.90;99.90;;;;;;5027597;28;20463;-91
2023/06/01 04:38:05;;;;;;;7.00;3.10;;;10.80;99.90;;;;;;4954494;28;20078;-86
2023/06/01 04:40:31;;;;;;;5.22;3.00;;;10.80;99.90;;;;;;4969162;28;20046;-82
2023/06/01 04:42:56;;;;;;;5.40;3.08;;;10.80;99.90;;;;;;4968957;28;20430;-84
2023/06/01 04:45:25;;;;;;;6.88;3.00;;;10.90;99.90;;;;;;4951520;28;20042;-82
2023/06/01 04:47:51;;;;;;;6.40;3.30;;;10.80;99.90;;;;;;4992630;28;20513;-81
2023/06/01 04:50:17;;;;;;;7.63;3.40;;;10.90;99.90;;;;;;4966655;28;20046;-83
2023/06/01 04:52:44;;;;;;;8.10;2.75;;;10.90;99.90;;;;;;4978801;28;20366;-87
2023/06/01 04:55:13;;;;;;;7.20;2.85;;;10.90;99.90;;;;;;4984831;28;20543;-82
2023/06/01 04:57:43;;;;;;;12.00;3.47;;;10.90;99.90;;;;;;4979191;28;20101;-83
2023/06/01 05:00:12;;;;;;;8.35;3.33;;;10.90;99.90;;;;;;4967837;28;20078;-81
2023/06/01 05:02:38;;;;;;;6.95;3.33;;;10.90;99.90;;;;;;4967518;28;20102;-85
2023/06/01 05:05:06;;;;;;;5.50;3.00;;;10.90;99.90;;;;;;4968912;28;20084;-85
2023/06/01 05:07:32;;;;;;;6.00;2.72;;;10.90;99.90;;;;;;5005887;28;20038;-82
2023/06/01 05:10:03;;;;;;;7.03;2.47;;;10.90;99.90;;;;;;4957847;28;20271;-83
2023/06/01 05:12:29;;;;;;;6.57;2.10;;;10.90;99.90;;;;;;5003989;28;20042;-83
2023/06/01 05:14:55;;;;;;;3.22;1.80;;;10.90;99.90;;;;;;4977120;28;20543;-86
2023/06/01 05:17:21;;;;;;;3.97;2.15;;;10.90;99.90;;;;;;4975316;28;20309;-86
2023/06/01 05:19:46;;;;;;;5.13;2.20;;;10.90;99.90;;;;;;4977490;28;20084;-83
2023/06/01 05:22:12;;;;;;;5.40;2.20;;;10.90;99.90;;;;;;4985701;28;20371;-83
2023/06/01 05:24:38;;;;;;;6.47;2.50;;;10.90;99.90;;;;;;5017378;28;20594;-82
2023/06/01 05:27:05;;;;;;;4.65;2.00;;;10.90;99.90;;;;;;5000778;28;20100;-85
2023/06/01 05:29:31;;;;;;;4.13;2.10;;;10.90;99.90;;;;;;4971206;28;20535;-84
2023/06/01 05:31:56;;;;;;;5.13;1.90;;;10.90;99.90;;;;;;4985432;28;20476;-84
2023/06/01 05:34:22;;;;;;;5.60;1.73;;;10.90;99.90;;;;;;4978424;28;20077;-86
2023/06/01 05:36:48;;;;;;;4.38;1.67;;;10.90;99.90;;;;;;4983602;28;20089;-85
2023/06/01 05:39:15;;;;;;;4.20;1.90;;;11.00;99.90;;;;;;4970913;28;20488;-83
2023/06/01 05:41:41;;;;;;;5.75;1.90;;;11.00;99.90;;;;;;4985290;28;20053;-89
2023/06/01 05:44:07;;;;;;;4.50;2.33;;;11.00;99.90;;;;;;4994897;28;20062;-87
2023/06/01 05:46:33;;;;;;;7.80;2.43;;;11.00;99.90;;;;;;4970294;28;20120;-80
2023/06/01 05:48:59;;;;;;;5.80;2.03;;;10.90;99.90;;;;;;4954454;28;20547;-82
2023/06/01 05:51:25;;;;;;;4.88;1.95;;;10.90;99.90;;;;;;4986336;28;20054;-83
2023/06/01 05:53:51;;;;;;;5.53;2.05;;;10.90;99.90;;;;;;4967906;28;20046;-83
2023/06/01 05:56:17;;;;;;;6.32;2.72;;;10.90;99.90;;;;;;4967257;28;20054;-86
2023/06/01 05:58:43;;;;;;;3.78;1.67;;;10.90;99.90;;;;;;4969833;28;20058;-84
2023/06/01 06:01:10;;;;;;;5.35;1.75;;;11.00;99.90;;;;;;4964691;28;20047;-84
2023/06/01 06:03:36;;;;;;;3.55;1.27;;;11.00;99.90;;;;;;4963685;28;20062;-86
2023/06/01 06:06:02;;;;;;;2.42;1.55;;;11.00;99.90;;;;;;4960538;28;20039;-82
2023/06/01 06:08:29;;;;;;;2.85;1.23;;;11.00;99.90;;;;;;4981693;28;20049;-85
2023/06/01 06:10:55;;;;;;;2.20;1.25;;;11.00;99.90;;;;;;4972347;28;20046;-84
2023/06/01 06:13:21;;;;;;;2.38;1.17;;;11.10;99.90;;;;;;4993889;28;20385;-84
2023/06/01 06:15:47;;;;;;;3.08;1.10;;;11.10;99.90;;;;;;4969382;28;20042;-83
2023/06/01 06:18:12;;;;;;;1.95;1.17;;;11.00;99.90;;;;;;4985761;28;20405;-82
2023/06/01 06:20:38;;;;;;;5.38;1.48;;;11.10;99.90;;;;;;4987154;28;20133;-83
2023/06/01 06:23:04;;;;;;;5.10;1.23;;;11.10;99.90;;;;;;4971340;28;20480;-82
2023/06/01 06:25:29;;;;;;;2.15;1.30;;;11.10;99.90;;;;;;4997624;28;20042;-81
2023/06/01 06:27:55;;;;;;;3.60;1.48;;;11.10;99.90;;;;;;4999877;28;20044;-85
2023/06/01 06:30:22;;;;;;;2.58;1.77;;;11.10;99.90;;;;;;4994663;28;20061;-84
2023/06/01 06:32:47;;;;;;;3.55;1.70;;;11.10;99.90;;;;;;4969785;28;20035;-81
2023/06/01 06:35:13;;;;;;;4.45;1.70;;;11.10;99.90;;;;;;5005584;28;20042;-86
2023/06/01 06:37:43;;;;;;;1.98;1.33;;;11.20;99.90;;;;;;4964131;28;20042;-85
2023/06/01 06:40:09;;;;;;;2.75;1.27;;;11.20;99.90;;;;;;5019149;28;20081;-86
2023/06/01 06:42:35;;;;;;;3.72;1.20;;;11.10;99.90;;;;;;4973910;28;20053;-83
2023/06/01 06:45:02;;;;;;;2.63;1.23;;;11.10;99.90;;;;;;4986178;28;20696;-86
2023/06/01 06:47:27;;;;;;;4.85;1.15;;;11.20;99.90;;;;;;4987261;28;20050;-87
2023/06/01 06:49:53;;;;;;;4.45;1.30;;;11.20;99.90;;;;;;5002443;28;20048;-87
2023/06/01 06:52:19;;;;;;;3.97;1.63;;;11.20;99.90;;;;;;4986569;28;20198;-84
2023/06/01 06:54:45;;;;;;;3.42;1.77;;;11.20;99.90;;;;;;5002550;28;20046;-84
2023/06/01 06:57:11;;;;;;;4.72;2.00;;;11.30;99.90;;;;;;4971006;28;20054;-86
2023/06/01 06:59:38;;;;;;;3.83;2.10;;;11.30;99.90;;;;;;4971296;28;20047;-84
2023/06/01 07:02:03;;;;;;;7.18;2.78;;;11.30;99.90;;;;;;4976442;28;20133;-84
2023/06/01 07:04:30;;;;;;;3.10;1.95;;;11.30;99.90;;;;;;4956728;28;20050;-86
2023/06/01 07:06:56;;;;;;;2.35;1.30;;;11.40;99.90;;;;;;4978027;28;20116;-83
2023/06/01 07:09:21;;;;;;;2.78;1.48;;;11.40;99.90;;;;;;4971174;28;20306;-85
2023/06/01 07:11:47;;;;;;;2.83;1.50;;;11.30;99.90;;;;;;4970953;28;20042;-84
2023/06/01 07:14:14;;;;;;;3.17;1.60;;;11.40;99.90;;;;;;4950417;28;20420;-87
2023/06/01 07:16:40;;;;;;;4.90;1.90;;;11.40;99.90;;;;;;4971129;28;20053;-84
2023/06/01 07:19:06;;;;;;;3.85;1.73;;;11.40;99.90;;;;;;4971520;28;20049;-82
2023/06/01 07:21:32;;;;;;;4.90;1.98;;;11.30;99.90;;;;;;4986511;28;20045;-82
2023/06/01 07:23:58;;;;;;;3.65;2.05;;;11.40;99.90;;;;;;4965952;28;20248;-85
2023/06/01 07:26:26;;;;;;;4.88;2.30;;;11.30;99.90;;;;;;4987562;28;20046;-84
2023/06/01 07:28:54;;;;;;;3.70;2.22;;;11.30;99.90;;;;;;4993943;28;20054;-87
2023/06/01 07:31:21;;;;;;;3.40;2.10;;;11.30;99.90;;;;;;4970073;28;20049;-85
2023/06/01 07:33:47;;;;;;;5.07;2.20;;;11.30;99.90;;;;;;4968845;28;20054;-88
2023/06/01 07:36:14;;;;;;;4.32;2.22;;;11.30;99.90;;;;;;5014987;28;20511;-84
2023/06/01 07:38:40;;;;;;;5.75;2.15;;;11.40;99.90;;;;;;4964979;28;20092;-84
2023/06/01 07:41:06;;;;;;;3.95;2.08;;;11.20;99.90;;;;;;5002975;28;20145;-85
2023/06/01 07:43:36;;;;;;;4.97;2.45;;;11.30;99.90;;;;;;4983726;28;20416;-83
2023/06/01 08:51:01;;;;;;;6.70;2.15;;;12.40;99.90;;;;;;5004918;27;1322220;-84
2023/06/01 08:53:28;;;;;;;4.95;2.10;;;11.60;99.90;;;;;;5016020;28;20573;-84
2023/06/01 08:55:55;;;;;;;5.43;2.15;;;11.60;99.90;;;;;;5002921;28;20732;-85
2023/06/01 08:58:21;;;;;;;4.68;2.10;;;11.60;99.90;;;;;;5015906;28;20063;-84
2023/06/01 09:00:49;;;;;;;6.07;2.15;;;11.60;99.90;;;;;;5003458;28;20516;-84
2023/06/01 09:03:15;;;;;;;6.10;2.00;;;11.60;99.90;;;;;;5028289;28;20120;-86
2023/06/01 09:05:41;;;;;;;6.90;2.17;;;11.70;99.90;;;;;;5002154;28;20129;-85
2023/06/01 09:08:08;;;;;;;6.10;1.63;;;11.70;99.90;;;;;;5041660;28;20747;-87
2023/06/01 09:10:33;;;;;;;5.72;2.08;;;11.70;99.90;;;;;;5010840;28;20058;-87
2023/06/01 09:13:00;;;;;;;6.50;2.10;;;11.70;99.90;;;;;;5093079;28;20132;-82
2023/06/01 09:15:26;;;;;;;5.63;2.08;;;11.70;99.90;;;;;;5020971;28;20042;-86
2023/06/01 09:18:07;;;;;;;6.10;2.25;;;11.70;99.90;;;;;;5027236;28;20455;-82
2023/06/01 09:20:33;;;;;;;6.47;2.20;;;11.70;99.90;;;;;;5015636;28;20128;-85
2023/06/01 09:23:00;;;;;;;6.65;1.75;;;11.70;99.90;;;;;;5014807;28;20132;-85
2023/06/01 09:25:33;;;;;;;7.10;2.15;;;11.70;99.90;;;;;;4993814;28;20132;-87
2023/06/01 09:28:00;;;;;;;5.03;1.77;;;11.70;99.90;;;;;;5015388;28;20485;-89
2023/06/01 09:30:38;;;;;;;;;;;11.70;99.90;;;;;;5040366;28;20476;-83
2023/06/01 09:33:14;;;;;;;6.47;2.45;;;11.70;99.90;;;;;;5049900;28;19929;-84
2023/06/01 09:35:43;;;;;;;4.38;1.90;;;11.70;99.90;;;;;;5029931;28;20440;-85
2023/06/01 09:38:11;;;;;;;5.53;1.63;;;11.80;99.90;;;;;;5010072;28;20042;-88
2023/06/01 09:40:38;;;;;;;4.45;2.40;;;11.80;99.90;;;;;;5007761;28;20048;-85
2023/06/01 09:43:20;;;;;;;4.93;1.48;;;11.80;99.90;;;;;;5023474;27;20037;-86
2023/06/01 09:46:02;;;;;;;5.03;2.22;;;11.80;99.90;;;;;;5013478;28;20409;-81
2023/06/01 09:48:29;;;;;;;6.68;2.10;;;11.80;99.90;;;;;;5009836;28;20431;-80
2023/06/01 09:50:55;;;;;;;4.13;1.55;;;11.90;99.90;;;;;;4997925;28;20062;-81
2023/06/01 09:53:20;;;;;;;7.03;1.67;;;11.90;99.90;;;;;;5092457;27;20454;-81
2023/06/01 09:56:00;;;;;;;5.03;1.80;;;11.90;99.90;;;;;;4992396;28;20521;-83
2023/06/01 09:58:26;;;;;;;5.20;2.05;;;11.90;99.90;;;;;;5006801;28;20125;-84
2023/06/01 10:00:53;;;;;;;5.95;2.13;;;12.00;99.90;;;;;;5112288;27;20153;-80
2023/06/01 10:03:22;;;;;;;3.47;1.80;;;12.00;99.90;;;;;;5030021;28;20042;-82
2023/06/01 10:05:49;;;;;;;4.95;1.77;;;12.00;99.90;;;;;;5003447;28;20049;-82
2023/06/01 10:08:17;;;;;;;7.87;1.83;;;12.00;99.90;;;;;;4993681;28;20036;-79
2023/06/01 10:10:45;;;;;;;6.95;1.77;;;12.10;99.90;;;;;;5009683;28;20565;-86
2023/06/01 10:13:12;;;;;;;4.15;1.83;;;12.10;99.90;;;;;;5008401;28;20034;-81
2023/06/01 10:15:38;;;;;;;4.57;1.90;;;12.20;99.90;;;;;;4985961;28;20050;-80
2023/06/01 10:18:05;;;;;;;4.55;1.73;;;12.20;99.90;;;;;;4991888;28;20129;-80
2023/06/01 10:20:33;;;;;;;7.45;2.80;;;12.20;99.90;;;;;;5004408;28;20072;-83
2023/06/01 10:23:00;;;;;;;7.15;2.38;;;12.20;99.90;;;;;;4999661;28;20183;-79
2023/06/01 10:25:32;;;;;;;5.97;2.10;;;12.20;99.90;;;;;;5019850;28;20136;-81
2023/06/01 10:28:00;;;;;;;7.82;1.80;;;12.30;99.90;;;;;;5007207;28;20125;-80
2023/06/01 10:30:26;;;;;;;8.25;2.45;;;12.20;99.90;;;;;;4991113;28;20049;-85
2023/06/01 10:32:54;;;;;;;7.30;1.88;;;12.30;99.90;;;;;;4997921;28;20682;-86
2023/06/01 10:35:28;;;;;;;4.35;1.90;;;12.30;99.90;;;;;;4997178;28;20045;-81
2023/06/01 10:38:07;;;;;;;4.38;1.70;;;12.30;99.90;;;;;;5020615;28;20091;-82
2023/06/01 10:40:36;;;;;;;6.60;1.58;;;12.40;99.90;;;;;;5016238;28;20502;-82
2023/06/01 10:43:05;;;;;;;4.90;1.92;;;12.50;99.90;;;;;;4994515;28;20049;-81
2023/06/01 10:45:35;;;;;;;4.95;1.48;;;12.50;99.90;;;;;;4990350;28;20038;-81
2023/06/01 10:48:05;;;;;;;4.22;1.65;;;12.60;99.90;;;;;;5012789;28;20046;-80
2023/06/01 10:50:31;;;;;;;4.90;1.67;;;12.50;99.90;;;;;;5020530;28;20054;-81
2023/06/01 10:53:30;;;;;;;7.93;1.90;;;12.50;99.90;;;;;;5012819;28;20405;-80
2023/06/01 10:56:23;;;;;;;5.28;2.20;;;12.60;99.90;;;;;;5023026;28;20138;-80
2023/06/01 10:59:07;;;;;;;5.13;2.10;;;12.60;99.90;;;;;;5008537;28;20042;-79
2023/06/01 11:01:38;;;;;;;6.30;1.77;;;12.60;99.90;;;;;;5021335;28;20128;-78
2023/06/01 11:04:05;;;;;;;7.22;2.17;;;12.60;99.90;;;;;;5000761;28;20056;-83
2023/06/01 11:06:37;;;;;;;6.20;2.05;;;12.50;99.90;;;;;;4999023;28;20445;-82
2023/06/01 11:09:11;;;;;;;6.30;1.88;;;12.50;99.90;;;;;;4979456;28;20132;-80
2023/06/01 11:11:55;;;;;;;8.30;2.22;;;12.50;99.90;;;;;;5000223;28;20050;-83
2023/06/01 11:14:33;;;;;;;6.03;1.70;;;12.60;99.90;;;;;;5012505;28;20135;-81
2023/06/01 11:17:28;;;;;;;6.03;1.55;;;12.60;99.90;;;;;;5006360;28;20443;-81
2023/06/01 11:20:04;;;;;;;5.88;1.70;;;12.50;99.90;;;;;;5016842;28;20046;-82
2023/06/01 11:22:38;;;;;;;6.68;2.17;;;12.50;99.90;;;;;;4991023;28;20056;-81
2023/06/01 11:25:11;;;;;;;5.55;2.05;;;12.50;99.90;;;;;;5011265;28;20114;-80
2023/06/01 11:27:42;;;;;;;6.00;1.92;;;12.50;99.90;;;;;;5015140;28;20418;-81
2023/06/01 11:30:09;;;;;;;5.60;1.92;;;12.50;99.90;;;;;;4998542;28;20050;-81
2023/06/01 11:32:37;;;;;;;;;;;12.50;99.90;;;;;;5059512;28;20072;-83
2023/06/01 11:35:16;;;;;;;8.00;2.50;;;12.50;99.90;;;;;;5023142;28;19925;-81
2023/06/01 11:37:42;;;;;;;5.57;1.92;;;12.50;99.90;;;;;;5023345;28;20041;-83
2023/06/01 11:40:10;;;;;;;6.35;2.10;;;12.50;99.90;;;;;;5068929;28;20094;-85
2023/06/01 11:42:36;;;;;;;6.13;1.92;;;12.50;99.90;;;;;;5008784;28;20045;-85
2023/06/01 11:45:02;;;;;;;6.30;2.25;;;12.60;99.90;;;;;;4992482;28;20393;-85
2023/06/01 11:47:31;;;;;;;4.72;1.77;;;12.50;99.90;;;;;;5009958;28;20056;-85
2023/06/01 11:49:57;;;;;;;6.65;2.10;;;12.60;99.90;;;;;;5014470;28;20061;-82
2023/06/01 11:52:23;;;;;;;7.10;2.17;;;12.60;99.90;;;;;;5062534;28;20577;-82
2023/06/01 11:54:51;;;;;;;6.40;2.55;;;12.50;99.90;;;;;;5021838;28;20601;-83
2023/06/01 11:57:18;;;;;;;4.93;2.35;;;12.50;99.90;;;;;;4999620;28;20041;-81
2023/06/01 11:59:46;;;;;;;5.43;1.52;;;12.50;99.90;;;;;;5090529;28;20041;-83
2023/06/01 12:02:20;;;;;;;;;;;12.60;99.90;;;;;;5017258;28;20050;-81
2023/06/01 12:05:08;;;;;;;4.72;2.17;;;12.60;99.90;;;;;;5020928;28;19916;-87
2023/06/01 12:07:47;;;;;;;8.07;2.50;;;12.60;99.90;;;;;;4997273;28;20059;-85
2023/06/01 12:10:16;;;;;;;6.43;2.05;;;12.50;99.90;;;;;;4989836;28;20468;-84
2023/06/01 12:12:43;;;;;;;7.82;2.78;;;12.40;99.90;;;;;;5074155;28;20368;-84
2023/06/01 12:15:15;;;;;;;7.63;2.33;;;12.30;99.90;;;;;;4990599;28;20052;-85
2023/06/01 12:17:53;;;;;;;5.30;2.55;;;12.20;99.90;;;;;;5003759;28;20046;-86
2023/06/01 12:20:35;;;;;;;5.75;2.60;;;12.20;99.90;;;;;;5014302;28;20045;-85
2023/06/01 12:23:16;;;;;;;7.25;2.13;;;12.20;99.90;;;;;;4997151;28;20053;-83
2023/06/01 12:25:52;;;;;;;6.20;2.45;;;12.20;99.90;;;;;;5015229;28;20048;-81
2023/06/01 12:28:18;;;;;;;4.30;2.13;;;12.30;99.90;;;;;;4979945;28;20049;-89
2023/06/01 12:30:45;;;;;;;3.97;1.88;;;12.30;99.90;;;;;;4985520;28;20083;-84
2023/06/01 12:33:34;;;;;;;9.80;3.28;;;12.30;99.90;;;;;;5003783;28;20048;-84
2023/06/01 12:36:01;;;;;;;8.30;3.00;;;12.30;99.90;;;;;;5021274;28;20064;-85
2023/06/01 12:38:27;;;;;;;6.50;3.10;;;12.30;99.90;;;;;;5068925;28;20063;-86
2023/06/01 12:41:25;;;;;;;9.52;3.05;;;12.20;99.90;;;;;;5003596;28;20046;-85
2023/06/01 12:43:53;;;;;;;8.07;2.67;;;12.20;99.90;;;;;;5013475;28;20054;-85
2023/06/01 12:46:26;;;;;;;11.30;2.75;;;12.10;99.90;;;;;;4985769;28;20037;-85
2023/06/01 12:49:11;;;;;;;8.68;2.65;;;12.10;99.90;;;;;;5016915;28;20072;-87
2023/06/01 12:51:38;;;;;;;10.73;3.42;;;12.10;99.90;;;;;;4990303;28;20077;-82
2023/06/01 12:54:03;;;;;;;7.03;2.40;;;12.20;99.90;;;;;;5021979;28;20053;-86
2023/06/01 12:56:29;;;;;;;4.90;2.30;;;12.30;99.90;;;;;;4968501;28;20046;-81
2023/06/01 12:58:55;;;;;;;4.38;2.10;;;12.30;99.90;;;;;;4999786;28;20785;-81
2023/06/01 13:01:21;;;;;;;6.55;2.70;;;12.30;99.90;;;;;;5043415;28;20053;-86
2023/06/01 13:03:47;;;;;;;8.50;2.30;;;12.30;99.90;;;;;;4984221;28;20045;-82
2023/06/01 13:06:16;;;;;;;6.30;2.05;;;12.40;99.90;;;;;;4997205;28;20052;-80
2023/06/01 13:08:42;;;;;;;6.95;2.15;;;12.40;99.90;;;;;;4987631;28;20046;-83
2023/06/01 13:11:08;;;;;;;6.60;2.47;;;12.40;99.90;;;;;;5018695;28;20046;-88
2023/06/01 13:13:38;;;;;;;7.97;2.22;;;12.50;99.90;;;;;;5006819;28;20042;-81
2023/06/01 13:16:04;;;;;;;5.65;2.33;;;12.50;99.90;;;;;;5017348;28;20168;-82
2023/06/01 13:18:29;;;;;;;5.30;2.10;;;12.60;99.90;;;;;;4989622;28;20046;-88
2023/06/01 13:20:56;;;;;;;3.55;1.83;;;12.70;99.90;;;;;;4982179;28;20054;-84
2023/06/01 13:23:22;;;;;;;7.77;2.00;;;12.70;99.90;;;;;;5021033;28;20064;-86
2023/06/01 13:25:57;;;;;;;3.88;1.35;;;12.80;99.90;;;;;;5023727;28;20117;-82
2023/06/01 13:28:23;;;;;;;4.57;1.48;;;12.80;99.90;;;;;;5000126;28;20046;-85
2023/06/01 13:30:58;;;;;;;6.13;2.00;;;12.80;99.90;;;;;;4993613;28;20064;-85
2023/06/01 13:33:25;;;;;;;5.25;1.85;;;12.70;99.90;;;;;;4978864;28;20049;-84
2023/06/01 13:35:51;;;;;;;4.88;1.63;;;12.70;99.90;;;;;;5062336;28;20133;-83
2023/06/01 13:38:18;;;;;;;4.47;1.88;;;12.60;99.90;;;;;;5018443;28;20183;-87
2023/06/01 13:40:44;;;;;;;4.20;1.63;;;12.50;99.90;;;;;;4994782;28;20088;-85
2023/06/01 13:43:12;;;;;;;6.88;1.60;;;12.40;99.90;;;;;;5008814;28;20041;-87
2023/06/01 13:45:37;;;;;;;6.40;1.52;;;12.40;99.90;;;;;;4994626;28;20102;-84
2023/06/01 13:48:03;;;;;;;6.45;1.70;;;12.30;99.90;;;;;;4976678;28;20128;-81
2023/06/01 13:50:35;;;;;;;4.10;1.40;;;12.30;99.90;;;;;;5051177;28;20107;-83
2023/06/01 13:53:05;;;;;;;3.13;1.30;;;12.30;99.90;;;;;;5075258;28;20062;-83
2023/06/01 13:55:31;;;;;;;4.63;1.60;;;12.30;99.90;;;;;;5000097;28;20517;-80
2023/06/01 13:57:58;;;;;;;4.85;1.58;;;12.40;99.90;;;;;;5078552;28;20098;-81
2023/06/01 14:00:37;;;;;;;4.80;1.50;;;12.40;99.90;;;;;;5034113;28;20096;-79
2023/06/01 14:03:04;;;;;;;1.73;1.00;;;12.40;99.90;;;;;;4999099;28;20111;-82